Plainfield, Illinois
Current Conditions -  °F | °C
As of 1:15 PM on Saturday 25 Oct 2014 (Local Time) from KLOT Reporting Station
Clear Clear  
Wind Chill: 72°   Ceiling: Unl
Heat Index: 72°   Visibility: 10mi
Dew Point: 38°   Wind: 10mph
Humidity: 30%   Direction: 330°NNW
Pressure: 29.96"   Gusts: NA
Location:  41.62°N, 88.2°W
Report Text: KLOT 251815Z AUTO 33009KT 10SM CLR 22/04 A2996 RMK AO2 T02200035
Loading
Personal Weather Stations






























Interactive Weather Map New forecast layout! Learn more

10-Day Weather Forecast

Advertisements
Track Severe Weather on mobile